sensor_id;sensor_type;location;lat;lon;timestamp;P1;durP1;ratioP1;P2;durP2;ratioP2
773;SDS011;370;48.810;9.150;2023-02-28T00:00:35;0.70;;;0.65;;
773;SDS011;370;48.810;9.150;2023-02-28T00:03:03;0.77;;;0.47;;
773;SDS011;370;48.810;9.150;2023-02-28T00:05:31;8.02;;;2.08;;
773;SDS011;370;48.810;9.150;2023-02-28T00:07:57;0.40;;;0.40;;
773;SDS011;370;48.810;9.150;2023-02-28T00:10:25;0.68;;;0.45;;
773;SDS011;370;48.810;9.150;2023-02-28T00:12:54;0.68;;;0.50;;
773;SDS011;370;48.810;9.150;2023-02-28T00:15:22;1.20;;;1.00;;
773;SDS011;370;48.810;9.150;2023-02-28T00:17:49;0.40;;;0.40;;
773;SDS011;370;48.810;9.150;2023-02-28T00:20:17;1.10;;;0.70;;
773;SDS011;370;48.810;9.150;2023-02-28T00:22:46;0.50;;;0.50;;
773;SDS011;370;48.810;9.150;2023-02-28T00:25:15;1.75;;;0.82;;
773;SDS011;370;48.810;9.150;2023-02-28T00:27:42;0.30;;;0.30;;
773;SDS011;370;48.810;9.150;2023-02-28T00:30:10;1.85;;;0.55;;
773;SDS011;370;48.810;9.150;2023-02-28T00:32:38;0.30;;;0.30;;
773;SDS011;370;48.810;9.150;2023-02-28T00:35:05;0.50;;;0.45;;
773;SDS011;370;48.810;9.150;2023-02-28T00:37:33;2.03;;;0.85;;
773;SDS011;370;48.810;9.150;2023-02-28T00:40:02;0.40;;;0.40;;
773;SDS011;370;48.810;9.150;2023-02-28T00:42:31;0.68;;;0.57;;
773;SDS011;370;48.810;9.150;2023-02-28T00:44:58;0.77;;;0.77;;
773;SDS011;370;48.810;9.150;2023-02-28T00:47:24;2.20;;;2.08;;
773;SDS011;370;48.810;9.150;2023-02-28T00:49:51;0.65;;;0.55;;
773;SDS011;370;48.810;9.150;2023-02-28T00:52:18;0.43;;;0.43;;
773;SDS011;370;48.810;9.150;2023-02-28T00:54:44;0.98;;;0.65;;
773;SDS011;370;48.810;9.150;2023-02-28T00:57:12;5.13;;;1.45;;
773;SDS011;370;48.810;9.150;2023-02-28T00:59:39;0.50;;;0.50;;
773;SDS011;370;48.810;9.150;2023-02-28T01:02:06;0.40;;;0.40;;
773;SDS011;370;48.810;9.150;2023-02-28T01:04:33;0.70;;;0.60;;
773;SDS011;370;48.810;9.150;2023-02-28T01:07:00;0.85;;;0.75;;
773;SDS011;370;48.810;9.150;2023-02-28T01:09:27;0.80;;;0.70;;
773;SDS011;370;48.810;9.150;2023-02-28T01:11:54;0.60;;;0.50;;
773;SDS011;370;48.810;9.150;2023-02-28T01:14:22;1.77;;;0.85;;
773;SDS011;370;48.810;9.150;2023-02-28T01:16:49;1.73;;;0.40;;
773;SDS011;370;48.810;9.150;2023-02-28T01:19:16;0.85;;;0.52;;
773;SDS011;370;48.810;9.150;2023-02-28T01:21:43;1.10;;;0.70;;
773;SDS011;370;48.810;9.150;2023-02-28T01:24:09;3.28;;;0.70;;
773;SDS011;370;48.810;9.150;2023-02-28T01:26:36;1.40;;;1.30;;
773;SDS011;370;48.810;9.150;2023-02-28T01:29:03;0.40;;;0.30;;
773;SDS011;370;48.810;9.150;2023-02-28T01:31:31;0.35;;;0.30;;
773;SDS011;370;48.810;9.150;2023-02-28T01:33:57;0.60;;;0.50;;
773;SDS011;370;48.810;9.150;2023-02-28T01:36:24;0.85;;;0.40;;
773;SDS011;370;48.810;9.150;2023-02-28T01:38:51;0.60;;;0.50;;
773;SDS011;370;48.810;9.150;2023-02-28T01:41:19;2.13;;;1.27;;
773;SDS011;370;48.810;9.150;2023-02-28T01:43:56;0.50;;;0.40;;
773;SDS011;370;48.810;9.150;2023-02-28T01:46:24;0.80;;;0.70;;
773;SDS011;370;48.810;9.150;2023-02-28T01:48:54;2.60;;;0.82;;
773;SDS011;370;48.810;9.150;2023-02-28T01:51:29;0.40;;;0.40;;
773;SDS011;370;48.810;9.150;2023-02-28T01:54:02;3.45;;;1.73;;
773;SDS011;370;48.810;9.150;2023-02-28T01:56:38;0.85;;;0.52;;
773;SDS011;370;48.810;9.150;2023-02-28T01:59:10;1.52;;;0.93;;
773;SDS011;370;48.810;9.150;2023-02-28T02:01:40;0.80;;;0.70;;
773;SDS011;370;48.810;9.150;2023-02-28T02:04:08;0.93;;;0.90;;
773;SDS011;370;48.810;9.150;2023-02-28T02:06:37;1.40;;;0.60;;
773;SDS011;370;48.810;9.150;2023-02-28T02:09:06;1.25;;;0.85;;
773;SDS011;370;48.810;9.150;2023-02-28T02:11:33;0.98;;;0.88;;
773;SDS011;370;48.810;9.150;2023-02-28T02:14:18;2.15;;;0.80;;
773;SDS011;370;48.810;9.150;2023-02-28T02:17:07;3.67;;;0.57;;
773;SDS011;370;48.810;9.150;2023-02-28T02:25:35;1.52;;;0.77;;
773;SDS011;370;48.810;9.150;2023-02-28T02:28:13;0.65;;;0.55;;
773;SDS011;370;48.810;9.150;2023-02-28T02:31:06;6.35;;;0.73;;
773;SDS011;370;48.810;9.150;2023-02-28T02:37:00;1.17;;;1.05;;
773;SDS011;370;48.810;9.150;2023-02-28T02:39:36;0.80;;;0.70;;
773;SDS011;370;48.810;9.150;2023-02-28T02:42:11;2.40;;;0.65;;
773;SDS011;370;48.810;9.150;2023-02-28T02:44:42;0.80;;;0.75;;
773;SDS011;370;48.810;9.150;2023-02-28T02:47:14;0.60;;;0.50;;
773;SDS011;370;48.810;9.150;2023-02-28T02:49:45;2.38;;;1.15;;
773;SDS011;370;48.810;9.150;2023-02-28T02:52:16;1.08;;;0.98;;
773;SDS011;370;48.810;9.150;2023-02-28T02:54:48;1.13;;;1.02;;
773;SDS011;370;48.810;9.150;2023-02-28T02:57:19;0.77;;;0.60;;
773;SDS011;370;48.810;9.150;2023-02-28T02:59:50;1.35;;;0.73;;
773;SDS011;370;48.810;9.150;2023-02-28T03:02:18;8.52;;;2.80;;
773;SDS011;370;48.810;9.150;2023-02-28T03:04:48;0.77;;;0.68;;
773;SDS011;370;48.810;9.150;2023-02-28T03:07:20;1.27;;;1.15;;
773;SDS011;370;48.810;9.150;2023-02-28T03:09:50;0.70;;;0.50;;
773;SDS011;370;48.810;9.150;2023-02-28T03:12:18;0.30;;;0.30;;
773;SDS011;370;48.810;9.150;2023-02-28T03:14:52;0.63;;;0.60;;
773;SDS011;370;48.810;9.150;2023-02-28T03:17:29;1.60;;;0.60;;
773;SDS011;370;48.810;9.150;2023-02-28T03:20:07;0.57;;;0.55;;
773;SDS011;370;48.810;9.150;2023-02-28T03:22:46;0.95;;;0.85;;
773;SDS011;370;48.810;9.150;2023-02-28T03:25:20;1.20;;;0.98;;
773;SDS011;370;48.810;9.150;2023-02-28T03:27:54;0.70;;;0.50;;
773;SDS011;370;48.810;9.150;2023-02-28T03:30:29;0.88;;;0.88;;
773;SDS011;370;48.810;9.150;2023-02-28T03:33:03;2.28;;;1.92;;
773;SDS011;370;48.810;9.150;2023-02-28T03:35:34;1.35;;;1.25;;
773;SDS011;370;48.810;9.150;2023-02-28T03:38:08;1.10;;;0.90;;
773;SDS011;370;48.810;9.150;2023-02-28T03:40:41;1.52;;;0.93;;
773;SDS011;370;48.810;9.150;2023-02-28T03:43:13;1.15;;;0.95;;
773;SDS011;370;48.810;9.150;2023-02-28T03:45:45;2.85;;;1.35;;
773;SDS011;370;48.810;9.150;2023-02-28T03:48:19;1.10;;;0.90;;
773;SDS011;370;48.810;9.150;2023-02-28T03:50:51;5.65;;;1.00;;
773;SDS011;370;48.810;9.150;2023-02-28T03:53:22;0.80;;;0.60;;
773;SDS011;370;48.810;9.150;2023-02-28T03:55:54;0.73;;;0.63;;
773;SDS011;370;48.810;9.150;2023-02-28T03:58:26;0.60;;;0.60;;
773;SDS011;370;48.810;9.150;2023-02-28T04:00:59;1.13;;;1.02;;
773;SDS011;370;48.810;9.150;2023-02-28T04:03:33;0.63;;;0.52;;
773;SDS011;370;48.810;9.150;2023-02-28T04:06:00;2.00;;;1.63;;
773;SDS011;370;48.810;9.150;2023-02-28T04:08:29;1.33;;;1.23;;
773;SDS011;370;48.810;9.150;2023-02-28T04:10:57;0.90;;;0.80;;
773;SDS011;370;48.810;9.150;2023-02-28T04:13:27;2.25;;;1.20;;
773;SDS011;370;48.810;9.150;2023-02-28T04:15:54;1.20;;;0.80;;
773;SDS011;370;48.810;9.150;2023-02-28T04:18:21;1.02;;;0.50;;
773;SDS011;370;48.810;9.150;2023-02-28T04:20:47;3.70;;;1.33;;
773;SDS011;370;48.810;9.150;2023-02-28T04:23:14;3.00;;;0.93;;
773;SDS011;370;48.810;9.150;2023-02-28T04:25:42;1.40;;;0.95;;
773;SDS011;370;48.810;9.150;2023-02-28T04:28:09;24.08;;;2.63;;
773;SDS011;370;48.810;9.150;2023-02-28T04:30:37;0.85;;;0.50;;
773;SDS011;370;48.810;9.150;2023-02-28T04:33:04;2.05;;;0.68;;
773;SDS011;370;48.810;9.150;2023-02-28T04:35:30;0.60;;;0.50;;
773;SDS011;370;48.810;9.150;2023-02-28T04:37:57;3.38;;;1.17;;
773;SDS011;370;48.810;9.150;2023-02-28T04:40:24;2.50;;;0.82;;
773;SDS011;370;48.810;9.150;2023-02-28T04:42:52;0.93;;;0.82;;
773;SDS011;370;48.810;9.150;2023-02-28T04:45:18;1.80;;;1.70;;
773;SDS011;370;48.810;9.150;2023-02-28T04:47:45;5.75;;;0.80;;
773;SDS011;370;48.810;9.150;2023-02-28T04:50:12;1.13;;;1.00;;
773;SDS011;370;48.810;9.150;2023-02-28T04:52:38;3.13;;;1.15;;
773;SDS011;370;48.810;9.150;2023-02-28T04:55:05;1.02;;;0.93;;
773;SDS011;370;48.810;9.150;2023-02-28T04:57:33;1.00;;;0.52;;
773;SDS011;370;48.810;9.150;2023-02-28T05:00:01;2.10;;;1.75;;
773;SDS011;370;48.810;9.150;2023-02-28T05:02:30;0.73;;;0.70;;
773;SDS011;370;48.810;9.150;2023-02-28T05:05:00;1.77;;;1.25;;
773;SDS011;370;48.810;9.150;2023-02-28T05:07:26;1.65;;;0.98;;
773;SDS011;370;48.810;9.150;2023-02-28T05:09:54;0.80;;;0.70;;
773;SDS011;370;48.810;9.150;2023-02-28T05:12:20;0.98;;;0.93;;
773;SDS011;370;48.810;9.150;2023-02-28T05:14:47;2.33;;;1.33;;
773;SDS011;370;48.810;9.150;2023-02-28T05:17:15;1.60;;;1.05;;
773;SDS011;370;48.810;9.150;2023-02-28T05:19:42;4.85;;;0.90;;
773;SDS011;370;48.810;9.150;2023-02-28T05:22:12;1.75;;;1.20;;
773;SDS011;370;48.810;9.150;2023-02-28T05:24:41;0.82;;;0.77;;
773;SDS011;370;48.810;9.150;2023-02-28T05:27:08;0.93;;;0.82;;
773;SDS011;370;48.810;9.150;2023-02-28T05:29:35;0.98;;;0.95;;
773;SDS011;370;48.810;9.150;2023-02-28T05:32:06;2.85;;;2.00;;
773;SDS011;370;48.810;9.150;2023-02-28T05:34:35;1.45;;;0.98;;
773;SDS011;370;48.810;9.150;2023-02-28T05:37:02;3.42;;;1.80;;
773;SDS011;370;48.810;9.150;2023-02-28T05:39:29;1.15;;;0.65;;
773;SDS011;370;48.810;9.150;2023-02-28T05:41:56;1.70;;;1.08;;
773;SDS011;370;48.810;9.150;2023-02-28T05:44:22;1.50;;;1.20;;
773;SDS011;370;48.810;9.150;2023-02-28T05:46:49;1.17;;;1.08;;
773;SDS011;370;48.810;9.150;2023-02-28T05:49:16;2.47;;;1.02;;
773;SDS011;370;48.810;9.150;2023-02-28T05:51:44;1.90;;;1.00;;
773;SDS011;370;48.810;9.150;2023-02-28T05:54:10;3.03;;;0.80;;
773;SDS011;370;48.810;9.150;2023-02-28T05:56:37;1.15;;;1.05;;
773;SDS011;370;48.810;9.150;2023-02-28T05:59:05;3.55;;;1.90;;
773;SDS011;370;48.810;9.150;2023-02-28T06:01:33;1.35;;;1.25;;
773;SDS011;370;48.810;9.150;2023-02-28T06:04:01;1.30;;;1.15;;
773;SDS011;370;48.810;9.150;2023-02-28T06:06:28;0.85;;;0.60;;
773;SDS011;370;48.810;9.150;2023-02-28T06:08:57;0.85;;;0.82;;
773;SDS011;370;48.810;9.150;2023-02-28T06:11:24;3.10;;;2.85;;
773;SDS011;370;48.810;9.150;2023-02-28T06:13:53;2.88;;;1.42;;
773;SDS011;370;48.810;9.150;2023-02-28T06:16:20;2.40;;;2.13;;
773;SDS011;370;48.810;9.150;2023-02-28T06:18:47;4.97;;;1.83;;
773;SDS011;370;48.810;9.150;2023-02-28T06:21:14;1.00;;;0.93;;
773;SDS011;370;48.810;9.150;2023-02-28T06:23:41;2.05;;;0.70;;
773;SDS011;370;48.810;9.150;2023-02-28T06:26:09;1.40;;;1.30;;
773;SDS011;370;48.810;9.150;2023-02-28T06:28:36;2.97;;;1.50;;
773;SDS011;370;48.810;9.150;2023-02-28T06:31:07;1.00;;;0.90;;
773;SDS011;370;48.810;9.150;2023-02-28T06:33:34;2.38;;;1.30;;
773;SDS011;370;48.810;9.150;2023-02-28T06:36:01;3.78;;;1.48;;
773;SDS011;370;48.810;9.150;2023-02-28T06:38:28;1.38;;;1.05;;
773;SDS011;370;48.810;9.150;2023-02-28T06:40:55;1.63;;;1.10;;
773;SDS011;370;48.810;9.150;2023-02-28T06:43:24;6.30;;;1.85;;
773;SDS011;370;48.810;9.150;2023-02-28T06:45:54;4.00;;;1.10;;
773;SDS011;370;48.810;9.150;2023-02-28T06:48:20;1.00;;;1.00;;
773;SDS011;370;48.810;9.150;2023-02-28T06:50:47;1.13;;;0.73;;
773;SDS011;370;48.810;9.150;2023-02-28T06:53:14;4.10;;;1.15;;
773;SDS011;370;48.810;9.150;2023-02-28T06:55:41;1.67;;;1.10;;
773;SDS011;370;48.810;9.150;2023-02-28T06:58:08;3.10;;;1.42;;
773;SDS011;370;48.810;9.150;2023-02-28T07:00:41;4.55;;;1.58;;
773;SDS011;370;48.810;9.150;2023-02-28T07:03:08;2.83;;;1.52;;
773;SDS011;370;48.810;9.150;2023-02-28T07:05:35;1.05;;;0.63;;
773;SDS011;370;48.810;9.150;2023-02-28T07:08:03;3.88;;;1.25;;
773;SDS011;370;48.810;9.150;2023-02-28T07:10:30;3.60;;;2.00;;
773;SDS011;370;48.810;9.150;2023-02-28T07:12:57;2.90;;;1.33;;
773;SDS011;370;48.810;9.150;2023-02-28T07:15:24;1.23;;;1.13;;
773;SDS011;370;48.810;9.150;2023-02-28T07:17:52;1.45;;;1.40;;
773;SDS011;370;48.810;9.150;2023-02-28T07:20:19;3.83;;;2.25;;
773;SDS011;370;48.810;9.150;2023-02-28T07:22:46;1.88;;;1.13;;
773;SDS011;370;48.810;9.150;2023-02-28T07:25:20;2.75;;;2.05;;
773;SDS011;370;48.810;9.150;2023-02-28T07:27:46;4.85;;;1.15;;
773;SDS011;370;48.810;9.150;2023-02-28T07:30:13;2.28;;;1.88;;
773;SDS011;370;48.810;9.150;2023-02-28T07:32:40;9.88;;;1.70;;
773;SDS011;370;48.810;9.150;2023-02-28T07:35:09;2.28;;;0.93;;
773;SDS011;370;48.810;9.150;2023-02-28T07:37:35;7.40;;;2.97;;
773;SDS011;370;48.810;9.150;2023-02-28T07:40:02;2.88;;;1.65;;
773;SDS011;370;48.810;9.150;2023-02-28T07:42:33;5.07;;;1.58;;
773;SDS011;370;48.810;9.150;2023-02-28T07:45:00;5.82;;;2.03;;
773;SDS011;370;48.810;9.150;2023-02-28T07:47:28;3.67;;;1.50;;
773;SDS011;370;48.810;9.150;2023-02-28T07:49:55;1.90;;;0.90;;
773;SDS011;370;48.810;9.150;2023-02-28T07:52:23;6.32;;;2.10;;
773;SDS011;370;48.810;9.150;2023-02-28T07:54:50;4.93;;;1.75;;
773;SDS011;370;48.810;9.150;2023-02-28T07:57:17;1.27;;;1.20;;
773;SDS011;370;48.810;9.150;2023-02-28T07:59:44;4.10;;;1.17;;
773;SDS011;370;48.810;9.150;2023-02-28T08:02:11;6.75;;;1.52;;
773;SDS011;370;48.810;9.150;2023-02-28T08:04:39;2.15;;;1.00;;
773;SDS011;370;48.810;9.150;2023-02-28T08:07:06;2.92;;;2.35;;
773;SDS011;370;48.810;9.150;2023-02-28T08:09:34;2.25;;;1.20;;
773;SDS011;370;48.810;9.150;2023-02-28T08:12:01;3.78;;;2.13;;
773;SDS011;370;48.810;9.150;2023-02-28T08:14:28;14.13;;;2.50;;
773;SDS011;370;48.810;9.150;2023-02-28T08:16:55;3.17;;;2.28;;
773;SDS011;370;48.810;9.150;2023-02-28T08:19:21;8.85;;;2.30;;
773;SDS011;370;48.810;9.150;2023-02-28T08:21:48;1.98;;;1.63;;
773;SDS011;370;48.810;9.150;2023-02-28T08:24:15;8.32;;;1.35;;
773;SDS011;370;48.810;9.150;2023-02-28T08:26:43;4.20;;;1.98;;
773;SDS011;370;48.810;9.150;2023-02-28T08:29:09;3.25;;;2.22;;
773;SDS011;370;48.810;9.150;2023-02-28T08:31:36;2.50;;;1.75;;
773;SDS011;370;48.810;9.150;2023-02-28T08:34:04;1.88;;;1.25;;
773;SDS011;370;48.810;9.150;2023-02-28T08:36:32;2.75;;;1.70;;
773;SDS011;370;48.810;9.150;2023-02-28T08:38:58;4.60;;;2.28;;
773;SDS011;370;48.810;9.150;2023-02-28T08:41:25;1.30;;;0.90;;
773;SDS011;370;48.810;9.150;2023-02-28T08:43:54;2.25;;;1.50;;
773;SDS011;370;48.810;9.150;2023-02-28T08:46:20;5.35;;;1.38;;
773;SDS011;370;48.810;9.150;2023-02-28T08:48:51;3.17;;;1.75;;
773;SDS011;370;48.810;9.150;2023-02-28T08:51:18;8.18;;;2.97;;
773;SDS011;370;48.810;9.150;2023-02-28T08:53:51;4.07;;;1.85;;
773;SDS011;370;48.810;9.150;2023-02-28T08:56:18;2.80;;;1.75;;
773;SDS011;370;48.810;9.150;2023-02-28T08:58:45;3.03;;;2.00;;
773;SDS011;370;48.810;9.150;2023-02-28T09:01:16;3.58;;;1.90;;
773;SDS011;370;48.810;9.150;2023-02-28T09:03:44;3.20;;;1.50;;
773;SDS011;370;48.810;9.150;2023-02-28T09:06:12;1.35;;;1.30;;
773;SDS011;370;48.810;9.150;2023-02-28T09:08:40;11.65;;;2.35;;
773;SDS011;370;48.810;9.150;2023-02-28T09:11:07;5.10;;;3.55;;
773;SDS011;370;48.810;9.150;2023-02-28T09:13:35;1.50;;;1.42;;
773;SDS011;370;48.810;9.150;2023-02-28T09:16:02;1.67;;;1.60;;
773;SDS011;370;48.810;9.150;2023-02-28T09:18:33;5.38;;;2.55;;
773;SDS011;370;48.810;9.150;2023-02-28T09:21:02;7.82;;;3.70;;
773;SDS011;370;48.810;9.150;2023-02-28T09:23:29;11.88;;;2.70;;
773;SDS011;370;48.810;9.150;2023-02-28T09:25:56;5.70;;;1.83;;
773;SDS011;370;48.810;9.150;2023-02-28T09:28:23;8.27;;;3.63;;
773;SDS011;370;48.810;9.150;2023-02-28T09:30:51;10.38;;;3.13;;
773;SDS011;370;48.810;9.150;2023-02-28T09:33:19;2.10;;;1.80;;
773;SDS011;370;48.810;9.150;2023-02-28T09:35:48;2.85;;;2.25;;
773;SDS011;370;48.810;9.150;2023-02-28T09:38:16;6.82;;;3.08;;
773;SDS011;370;48.810;9.150;2023-02-28T09:40:45;6.50;;;3.05;;
773;SDS011;370;48.810;9.150;2023-02-28T09:43:15;4.70;;;2.60;;
773;SDS011;370;48.810;9.150;2023-02-28T09:45:46;6.35;;;2.60;;
773;SDS011;370;48.810;9.150;2023-02-28T09:48:16;5.32;;;1.83;;
773;SDS011;370;48.810;9.150;2023-02-28T09:50:48;6.95;;;2.53;;
773;SDS011;370;48.810;9.150;2023-02-28T09:53:19;4.00;;;2.67;;
773;SDS011;370;48.810;9.150;2023-02-28T09:55:53;34.10;;;2.70;;
773;SDS011;370;48.810;9.150;2023-02-28T09:58:26;6.80;;;2.45;;
773;SDS011;370;48.810;9.150;2023-02-28T10:00:57;4.05;;;2.50;;
773;SDS011;370;48.810;9.150;2023-02-28T10:03:32;5.53;;;2.40;;
773;SDS011;370;48.810;9.150;2023-02-28T10:06:07;7.55;;;2.38;;
773;SDS011;370;48.810;9.150;2023-02-28T10:08:40;3.92;;;2.13;;
773;SDS011;370;48.810;9.150;2023-02-28T10:11:12;3.88;;;2.40;;
773;SDS011;370;48.810;9.150;2023-02-28T10:13:46;5.05;;;2.38;;
773;SDS011;370;48.810;9.150;2023-02-28T10:16:21;9.07;;;3.75;;
773;SDS011;370;48.810;9.150;2023-02-28T10:18:56;5.22;;;3.42;;
773;SDS011;370;48.810;9.150;2023-02-28T10:21:30;4.25;;;2.45;;
773;SDS011;370;48.810;9.150;2023-02-28T10:24:03;8.02;;;3.35;;
773;SDS011;370;48.810;9.150;2023-02-28T10:26:35;6.20;;;3.05;;
773;SDS011;370;48.810;9.150;2023-02-28T10:29:02;3.03;;;2.22;;
773;SDS011;370;48.810;9.150;2023-02-28T10:31:29;3.00;;;2.40;;
773;SDS011;370;48.810;9.150;2023-02-28T10:33:56;6.15;;;3.33;;
773;SDS011;370;48.810;9.150;2023-02-28T10:36:23;6.18;;;3.28;;
773;SDS011;370;48.810;9.150;2023-02-28T10:38:51;3.88;;;2.53;;
773;SDS011;370;48.810;9.150;2023-02-28T10:41:26;8.55;;;3.53;;
773;SDS011;370;48.810;9.150;2023-02-28T10:44:12;10.98;;;3.92;;
773;SDS011;370;48.810;9.150;2023-02-28T10:46:40;5.72;;;3.47;;
773;SDS011;370;48.810;9.150;2023-02-28T10:49:12;9.00;;;3.55;;
773;SDS011;370;48.810;9.150;2023-02-28T10:51:43;9.57;;;3.55;;
773;SDS011;370;48.810;9.150;2023-02-28T10:54:16;8.20;;;3.90;;
773;SDS011;370;48.810;9.150;2023-02-28T10:56:54;12.77;;;5.03;;
773;SDS011;370;48.810;9.150;2023-02-28T10:59:33;9.52;;;4.35;;
773;SDS011;370;48.810;9.150;2023-02-28T11:02:01;9.45;;;3.95;;
773;SDS011;370;48.810;9.150;2023-02-28T11:04:37;6.25;;;3.38;;
773;SDS011;370;48.810;9.150;2023-02-28T11:07:05;9.65;;;4.05;;
773;SDS011;370;48.810;9.150;2023-02-28T11:09:44;7.82;;;4.40;;
773;SDS011;370;48.810;9.150;2023-02-28T11:12:19;13.75;;;4.57;;
773;SDS011;370;48.810;9.150;2023-02-28T11:14:49;7.87;;;4.80;;
773;SDS011;370;48.810;9.150;2023-02-28T11:17:19;14.30;;;5.70;;
773;SDS011;370;48.810;9.150;2023-02-28T11:19:49;6.40;;;4.63;;
773;SDS011;370;48.810;9.150;2023-02-28T11:22:18;9.13;;;4.87;;
773;SDS011;370;48.810;9.150;2023-02-28T11:24:48;10.10;;;4.93;;
773;SDS011;370;48.810;9.150;2023-02-28T11:27:40;7.60;;;4.53;;
773;SDS011;370;48.810;9.150;2023-02-28T11:32:58;8.57;;;5.00;;
773;SDS011;370;48.810;9.150;2023-02-28T11:35:27;8.43;;;4.80;;
773;SDS011;370;48.810;9.150;2023-02-28T11:37:56;13.30;;;5.90;;
773;SDS011;370;48.810;9.150;2023-02-28T11:40:28;9.53;;;5.50;;
773;SDS011;370;48.810;9.150;2023-02-28T11:43:06;8.63;;;5.30;;
773;SDS011;370;48.810;9.150;2023-02-28T11:45:49;10.13;;;4.57;;
773;SDS011;370;48.810;9.150;2023-02-28T11:48:33;8.30;;;5.03;;
773;SDS011;370;48.810;9.150;2023-02-28T11:51:11;8.30;;;5.27;;
773;SDS011;370;48.810;9.150;2023-02-28T11:53:49;8.53;;;5.57;;
773;SDS011;370;48.810;9.150;2023-02-28T11:56:37;7.60;;;5.10;;
773;SDS011;370;48.810;9.150;2023-02-28T11:59:22;9.40;;;6.07;;
773;SDS011;370;48.810;9.150;2023-02-28T12:02:14;9.03;;;5.33;;
773;SDS011;370;48.810;9.150;2023-02-28T12:05:04;7.67;;;5.10;;
773;SDS011;370;48.810;9.150;2023-02-28T12:07:45;9.63;;;5.03;;
773;SDS011;370;48.810;9.150;2023-02-28T12:10:21;8.40;;;5.07;;
773;SDS011;370;48.810;9.150;2023-02-28T12:12:58;7.67;;;4.97;;
773;SDS011;370;48.810;9.150;2023-02-28T12:18:26;10.33;;;5.47;;
773;SDS011;370;48.810;9.150;2023-02-28T12:21:01;12.47;;;5.70;;
773;SDS011;370;48.810;9.150;2023-02-28T12:23:42;13.60;;;5.37;;
773;SDS011;370;48.810;9.150;2023-02-28T12:26:35;7.97;;;5.60;;
773;SDS011;370;48.810;9.150;2023-02-28T12:29:09;8.07;;;4.97;;
773;SDS011;370;48.810;9.150;2023-02-28T12:31:41;8.77;;;5.50;;
773;SDS011;370;48.810;9.150;2023-02-28T12:34:13;8.13;;;5.47;;
773;SDS011;370;48.810;9.150;2023-02-28T12:36:45;10.67;;;6.17;;
773;SDS011;370;48.810;9.150;2023-02-28T12:39:15;9.37;;;5.13;;
773;SDS011;370;48.810;9.150;2023-02-28T12:41:47;9.63;;;5.97;;
773;SDS011;370;48.810;9.150;2023-02-28T12:44:21;11.70;;;4.97;;
773;SDS011;370;48.810;9.150;2023-02-28T12:46:54;10.87;;;4.93;;
773;SDS011;370;48.810;9.150;2023-02-28T12:49:25;10.60;;;5.10;;
773;SDS011;370;48.810;9.150;2023-02-28T12:51:56;9.07;;;5.60;;
773;SDS011;370;48.810;9.150;2023-02-28T12:54:26;9.27;;;4.90;;
773;SDS011;370;48.810;9.150;2023-02-28T12:57:00;10.70;;;5.70;;
773;SDS011;370;48.810;9.150;2023-02-28T12:59:36;9.05;;;5.10;;
773;SDS011;370;48.810;9.150;2023-02-28T13:02:18;11.50;;;5.57;;
773;SDS011;370;48.810;9.150;2023-02-28T13:05:19;10.40;;;5.03;;
773;SDS011;370;48.810;9.150;2023-02-28T13:10:50;10.00;;;4.70;;
773;SDS011;370;48.810;9.150;2023-02-28T13:13:19;11.40;;;4.53;;
773;SDS011;370;48.810;9.150;2023-02-28T13:16:03;9.00;;;4.57;;
773;SDS011;370;48.810;9.150;2023-02-28T13:18:32;8.73;;;3.83;;
773;SDS011;370;48.810;9.150;2023-02-28T13:21:02;6.22;;;3.72;;
773;SDS011;370;48.810;9.150;2023-02-28T13:23:39;8.43;;;4.30;;
773;SDS011;370;48.810;9.150;2023-02-28T13:26:23;8.27;;;4.47;;
773;SDS011;370;48.810;9.150;2023-02-28T13:29:29;7.47;;;3.90;;
773;SDS011;370;48.810;9.150;2023-02-28T13:35:15;6.75;;;3.17;;
773;SDS011;370;48.810;9.150;2023-02-28T13:38:32;6.68;;;3.17;;
773;SDS011;370;48.810;9.150;2023-02-28T13:44:07;5.10;;;2.90;;
773;SDS011;370;48.810;9.150;2023-02-28T13:46:37;7.10;;;4.00;;
773;SDS011;370;48.810;9.150;2023-02-28T13:49:55;5.63;;;2.70;;
773;SDS011;370;48.810;9.150;2023-02-28T13:52:43;7.75;;;2.88;;
773;SDS011;370;48.810;9.150;2023-02-28T13:55:20;7.07;;;3.28;;
773;SDS011;370;48.810;9.150;2023-02-28T13:57:57;7.45;;;3.95;;
773;SDS011;370;48.810;9.150;2023-02-28T14:00:41;11.63;;;3.90;;
773;SDS011;370;48.810;9.150;2023-02-28T14:03:31;6.30;;;3.20;;
773;SDS011;370;48.810;9.150;2023-02-28T14:06:16;9.75;;;4.43;;
773;SDS011;370;48.810;9.150;2023-02-28T14:08:52;7.50;;;4.35;;
773;SDS011;370;48.810;9.150;2023-02-28T14:11:25;7.18;;;3.00;;
773;SDS011;370;48.810;9.150;2023-02-28T14:13:56;4.72;;;3.50;;
773;SDS011;370;48.810;9.150;2023-02-28T14:16:35;7.63;;;3.50;;
773;SDS011;370;48.810;9.150;2023-02-28T14:19:10;6.25;;;2.60;;
773;SDS011;370;48.810;9.150;2023-02-28T14:21:43;5.70;;;2.90;;
773;SDS011;370;48.810;9.150;2023-02-28T14:24:25;5.80;;;3.42;;
773;SDS011;370;48.810;9.150;2023-02-28T14:27:21;8.63;;;3.75;;
773;SDS011;370;48.810;9.150;2023-02-28T14:33:08;5.68;;;3.08;;
773;SDS011;370;48.810;9.150;2023-02-28T14:35:50;3.67;;;2.05;;
773;SDS011;370;48.810;9.150;2023-02-28T14:38:29;6.00;;;3.10;;
773;SDS011;370;48.810;9.150;2023-02-28T14:40:58;6.25;;;3.08;;
773;SDS011;370;48.810;9.150;2023-02-28T14:43:29;10.45;;;4.60;;
773;SDS011;370;48.810;9.150;2023-02-28T14:45:56;8.82;;;2.50;;
773;SDS011;370;48.810;9.150;2023-02-28T14:48:25;6.70;;;2.83;;
773;SDS011;370;48.810;9.150;2023-02-28T14:50:53;9.50;;;2.72;;
773;SDS011;370;48.810;9.150;2023-02-28T14:53:22;3.97;;;2.97;;
773;SDS011;370;48.810;9.150;2023-02-28T14:55:53;6.18;;;2.70;;
773;SDS011;370;48.810;9.150;2023-02-28T14:58:22;9.57;;;2.53;;
773;SDS011;370;48.810;9.150;2023-02-28T15:00:51;5.18;;;3.35;;
773;SDS011;370;48.810;9.150;2023-02-28T15:03:20;8.13;;;3.58;;
773;SDS011;370;48.810;9.150;2023-02-28T15:05:52;8.95;;;3.35;;
773;SDS011;370;48.810;9.150;2023-02-28T15:08:21;5.43;;;3.10;;
773;SDS011;370;48.810;9.150;2023-02-28T15:10:50;7.07;;;3.72;;
773;SDS011;370;48.810;9.150;2023-02-28T15:13:21;13.40;;;3.10;;
773;SDS011;370;48.810;9.150;2023-02-28T15:15:50;8.25;;;3.38;;
773;SDS011;370;48.810;9.150;2023-02-28T15:18:22;5.20;;;2.95;;
773;SDS011;370;48.810;9.150;2023-02-28T15:20:55;4.03;;;2.50;;
773;SDS011;370;48.810;9.150;2023-02-28T15:23:22;9.30;;;3.35;;
773;SDS011;370;48.810;9.150;2023-02-28T15:25:49;7.68;;;3.60;;
773;SDS011;370;48.810;9.150;2023-02-28T15:28:19;6.03;;;2.90;;
773;SDS011;370;48.810;9.150;2023-02-28T15:30:51;10.77;;;3.13;;
773;SDS011;370;48.810;9.150;2023-02-28T15:33:21;6.78;;;2.92;;
773;SDS011;370;48.810;9.150;2023-02-28T15:35:49;4.78;;;2.88;;
773;SDS011;370;48.810;9.150;2023-02-28T15:38:18;6.55;;;2.63;;
773;SDS011;370;48.810;9.150;2023-02-28T15:40:50;8.20;;;3.65;;
773;SDS011;370;48.810;9.150;2023-02-28T15:43:26;8.52;;;3.70;;
773;SDS011;370;48.810;9.150;2023-02-28T15:45:55;9.88;;;3.22;;
773;SDS011;370;48.810;9.150;2023-02-28T15:48:25;5.38;;;2.47;;
773;SDS011;370;48.810;9.150;2023-02-28T15:50:55;10.75;;;3.17;;
773;SDS011;370;48.810;9.150;2023-02-28T15:53:24;11.70;;;3.50;;
773;SDS011;370;48.810;9.150;2023-02-28T15:55:55;6.72;;;3.60;;
773;SDS011;370;48.810;9.150;2023-02-28T15:58:28;7.95;;;3.15;;
773;SDS011;370;48.810;9.150;2023-02-28T16:01:06;7.28;;;3.15;;
773;SDS011;370;48.810;9.150;2023-02-28T16:03:43;10.80;;;4.22;;
773;SDS011;370;48.810;9.150;2023-02-28T16:06:26;7.38;;;2.95;;
773;SDS011;370;48.810;9.150;2023-02-28T16:08:59;5.20;;;3.20;;
773;SDS011;370;48.810;9.150;2023-02-28T16:11:26;5.30;;;2.92;;
773;SDS011;370;48.810;9.150;2023-02-28T16:13:54;10.55;;;3.38;;
773;SDS011;370;48.810;9.150;2023-02-28T16:16:23;10.65;;;3.65;;
773;SDS011;370;48.810;9.150;2023-02-28T16:18:51;7.15;;;3.60;;
773;SDS011;370;48.810;9.150;2023-02-28T16:21:18;10.20;;;4.22;;
773;SDS011;370;48.810;9.150;2023-02-28T16:23:44;6.03;;;2.95;;
773;SDS011;370;48.810;9.150;2023-02-28T16:26:14;7.70;;;3.30;;
773;SDS011;370;48.810;9.150;2023-02-28T16:28:47;3.88;;;2.20;;
773;SDS011;370;48.810;9.150;2023-02-28T16:31:15;5.95;;;3.17;;
773;SDS011;370;48.810;9.150;2023-02-28T16:33:43;6.47;;;2.45;;
773;SDS011;370;48.810;9.150;2023-02-28T16:36:13;4.43;;;2.85;;